Time;durP1;ratioP1;P1;durP2;ratioP2;P2;SDS_P1;SDS_P2;PMS_P1;PMS_P2;Temp;Humidity;BMP_temperature;BMP_pressure;BME280_temperature;BME280_humidity;BME280_pressure;Samples;Min_cycle;Max_cycle;Signal;HPM_P1;HPM_P2
2023/04/21 00:01:07;;;;;;;0.73;0.70;;;;;;;4.49;100.00;92122.91;5013459;28;20034;-78
2023/04/21 00:03:36;;;;;;;0.75;0.75;;;;;;;4.68;100.00;92130.94;5011405;28;20116;-78
2023/04/21 00:06:02;;;;;;;4.32;0.90;;;;;;;4.68;100.00;92136.13;5013546;28;20500;-78
2023/04/21 00:08:28;;;;;;;3.67;1.20;;;;;;;4.48;100.00;92120.56;5014515;28;20326;-78
2023/04/21 00:10:53;;;;;;;2.85;1.10;;;;;;;4.41;100.00;92120.03;5013399;28;20042;-78
2023/04/21 00:13:19;;;;;;;4.88;1.00;;;;;;;4.46;100.00;92122.63;5013527;28;20030;-78
2023/04/21 00:15:44;;;;;;;0.88;0.80;;;;;;;4.48;100.00;92116.19;5013586;28;20091;-77
2023/04/21 00:18:12;;;;;;;15.63;1.23;;;;;;;4.35;100.00;92116.66;5014360;28;20551;-78
2023/04/21 00:20:38;;;;;;;0.80;0.80;;;;;;;4.33;100.00;92119.50;4997277;28;20335;-77
2023/04/21 00:23:03;;;;;;;1.10;1.00;;;;;;;4.31;100.00;92120.81;5012606;28;20061;-77
2023/04/21 00:25:30;;;;;;;8.82;1.20;;;;;;;4.46;100.00;92127.81;4997375;28;20096;-77
2023/04/21 00:27:56;;;;;;;55.65;2.08;;;;;;;4.36;100.00;92126.75;5014542;28;20049;-78
2023/04/21 00:30:22;;;;;;;21.08;1.48;;;;;;;4.25;100.00;92122.59;5013214;28;20112;-78
2023/04/21 00:32:48;;;;;;;20.42;1.38;;;;;;;4.18;100.00;92128.00;5013035;28;20499;-77
2023/04/21 00:35:13;;;;;;;1.50;1.00;;;;;;;4.17;100.00;92116.09;5013794;28;20057;-78
2023/04/21 00:37:40;;;;;;;2.50;1.00;;;;;;;4.21;100.00;92121.56;4996901;28;20038;-78
2023/04/21 00:40:08;;;;;;;1.15;0.90;;;;;;;4.26;100.00;92139.72;5013185;28;20482;-78
2023/04/21 00:42:33;;;;;;;0.90;0.80;;;;;;;4.31;100.00;92137.13;5012390;28;20129;-77
2023/04/21 00:45:00;;;;;;;0.85;0.85;;;;;;;4.34;100.00;92130.66;5012770;28;20125;-78
2023/04/21 00:47:26;;;;;;;0.82;0.80;;;;;;;4.33;100.00;92129.88;5029176;28;20061;-78
2023/04/21 00:49:52;;;;;;;1.10;1.00;;;;;;;4.35;100.00;92133.00;5029657;28;20034;-77
2023/04/21 00:52:18;;;;;;;0.88;0.80;;;;;;;4.41;100.00;92135.59;5011371;28;20045;-77
2023/04/21 00:54:43;;;;;;;0.68;0.63;;;;;;;4.41;100.00;92125.22;4993257;28;20198;-77
2023/04/21 00:57:10;;;;;;;1.13;0.95;;;;;;;4.43;100.00;92125.75;4976968;28;20534;-77
2023/04/21 00:59:36;;;;;;;0.77;0.77;;;;;;;4.46;100.00;92128.59;4992778;28;20408;-77
2023/04/21 01:02:02;;;;;;;1.80;0.55;;;;;;;4.50;100.00;92137.44;5001184;28;20022;-77
2023/04/21 01:04:34;;;;;;;130.30;3.90;;;;;;;4.41;100.00;92141.53;5011735;28;20033;-77
2023/04/21 01:07:03;;;;;;;68.32;2.58;;;;;;;4.35;100.00;92148.53;5013457;28;20377;-77
2023/04/21 01:09:31;;;;;;;0.70;0.70;;;;;;;4.37;100.00;92137.94;5011102;28;20124;-77
2023/04/21 01:12:04;;;;;;;0.60;0.60;;;;;;;4.38;100.00;92144.66;5027837;28;20053;-77
2023/04/21 01:14:34;;;;;;;1.83;0.80;;;;;;;4.38;100.00;92137.66;5012599;28;20033;-77
2023/04/21 01:17:04;;;;;;;0.63;0.63;;;;;;;4.42;100.00;92142.34;5012163;28;20073;-77
2023/04/21 01:19:40;;;;;;;0.73;0.60;;;;;;;4.38;100.00;92142.06;5011752;28;20038;-78
2023/04/21 01:22:10;;;;;;;0.60;0.60;;;;;;;4.41;100.00;92148.53;5012629;28;20030;-77
2023/04/21 01:24:37;;;;;;;0.68;0.68;;;;;;;4.41;100.00;92143.34;5011200;28;20041;-78
2023/04/21 01:27:07;;;;;;;0.70;0.70;;;;;;;4.44;100.00;92140.28;5001288;28;20042;-77
2023/04/21 01:29:33;;;;;;;0.52;0.52;;;;;;;4.44;100.00;92141.03;4990581;28;20092;-77
2023/04/21 01:32:08;;;;;;;0.93;0.63;;;;;;;4.44;100.00;92133.28;5010095;28;20326;-77
2023/04/21 01:34:35;;;;;;;0.70;0.70;;;;;;;4.43;100.00;92139.47;4994391;28;20034;-77
2023/04/21 01:37:02;;;;;;;0.70;0.70;;;;;;;4.39;100.00;92143.63;5010262;28;20048;-78
2023/04/21 01:39:29;;;;;;;0.50;0.50;;;;;;;4.38;100.00;92142.84;5013287;28;20080;-78
2023/04/21 01:41:56;;;;;;;0.50;0.50;;;;;;;4.35;100.00;92133.00;5006273;28;20122;-78
2023/04/21 01:44:24;;;;;;;0.60;0.60;;;;;;;4.37;100.00;92138.69;5010322;28;20045;-78
2023/04/21 01:46:50;;;;;;;0.45;0.45;;;;;;;4.35;100.00;92138.16;5012089;28;20034;-78
2023/04/21 01:49:19;;;;;;;0.50;0.50;;;;;;;4.32;100.00;92123.16;5012576;28;20132;-78
2023/04/21 01:51:44;;;;;;;0.57;0.57;;;;;;;4.29;100.00;92121.06;5012243;28;20049;-78
2023/04/21 01:54:10;;;;;;;0.60;0.60;;;;;;;4.28;100.00;92132.47;4992493;28;20030;-78
2023/04/21 01:56:36;;;;;;;0.60;0.60;;;;;;;4.28;100.00;92139.44;4993609;28;20099;-78
2023/04/21 01:59:02;;;;;;;0.60;0.60;;;;;;;4.28;100.00;92137.66;4992710;28;20034;-78
2023/04/21 02:01:28;;;;;;;0.50;0.50;;;;;;;4.28;100.00;92134.25;4993449;28;20026;-78
2023/04/21 02:03:54;;;;;;;0.70;0.70;;;;;;;4.26;100.00;92139.72;4997752;28;20121;-78
2023/04/21 02:06:23;;;;;;;0.82;0.50;;;;;;;4.29;100.00;92134.00;4994519;28;20044;-78
2023/04/21 02:08:48;;;;;;;0.50;0.50;;;;;;;4.28;100.00;92131.66;5013654;28;20479;-78
2023/04/21 02:11:14;;;;;;;0.50;0.50;;;;;;;4.28;100.00;92132.47;5012197;28;20041;-77
2023/04/21 02:13:40;;;;;;;0.40;0.40;;;;;;;4.28;100.00;92137.66;5012048;28;20033;-78
2023/04/21 02:16:06;;;;;;;0.50;0.50;;;;;;;4.29;100.00;92141.78;5011880;28;20037;-77
2023/04/21 02:18:34;;;;;;;0.50;0.50;;;;;;;4.37;100.00;92149.06;5013746;28;20045;-78
2023/04/21 02:20:59;;;;;;;2.70;0.80;;;;;;;4.34;100.00;92149.56;5014395;28;20062;-78
2023/04/21 02:23:26;;;;;;;0.45;0.45;;;;;;;4.32;100.00;92158.63;4998859;28;20034;-77
2023/04/21 02:25:53;;;;;;;0.60;0.60;;;;;;;4.30;100.00;92151.13;5015242;28;20038;-77
2023/04/21 02:28:19;;;;;;;0.60;0.60;;;;;;;4.33;100.00;92157.59;5016780;28;20403;-77
2023/04/21 02:30:46;;;;;;;0.50;0.50;;;;;;;4.35;100.00;92158.91;4999437;28;20034;-78
2023/04/21 02:33:12;;;;;;;1.08;0.70;;;;;;;4.32;100.00;92163.81;5014901;28;20048;-77
2023/04/21 02:35:37;;;;;;;0.68;0.68;;;;;;;4.32;100.00;92164.59;4997491;28;20069;-77
2023/04/21 02:38:06;;;;;;;1.02;0.93;;;;;;;4.32;100.00;92158.63;4995345;28;20049;-78
2023/04/21 02:40:32;;;;;;;0.52;0.52;;;;;;;4.29;100.00;92162.50;4996521;28;20085;-78
2023/04/21 02:42:57;;;;;;;1.33;0.65;;;;;;;4.26;100.00;92165.63;4995248;28;20046;-77
2023/04/21 02:45:24;;;;;;;0.60;0.60;;;;;;;4.23;100.00;92168.69;5012517;28;20088;-78
2023/04/21 02:47:49;;;;;;;0.85;0.63;;;;;;;4.25;100.00;92173.63;5014426;28;20475;-78
2023/04/21 02:50:15;;;;;;;0.88;0.70;;;;;;;4.20;100.00;92165.84;5001213;28;20068;-78
2023/04/21 02:52:41;;;;;;;0.70;0.70;;;;;;;4.24;100.00;92169.50;4984093;28;20404;-78
2023/04/21 02:55:07;;;;;;;1.05;0.68;;;;;;;4.25;100.00;92171.81;5009111;28;20029;-78
2023/04/21 02:57:32;;;;;;;0.50;0.50;;;;;;;4.28;100.00;92180.91;5013829;28;20553;-78
2023/04/21 03:00:00;;;;;;;1.08;0.70;;;;;;;4.31;100.00;92183.00;4998672;28;20085;-78
2023/04/21 03:02:26;;;;;;;1.27;0.80;;;;;;;4.27;100.00;92187.91;5034479;28;20505;-78
2023/04/21 03:04:52;;;;;;;2.28;0.90;;;;;;;4.28;100.00;92184.28;5023179;28;20046;-79
2023/04/21 03:07:17;;;;;;;1.48;1.00;;;;;;;4.28;100.00;92178.31;4997592;28;20034;-77
2023/04/21 03:09:43;;;;;;;0.70;0.70;;;;;;;4.27;100.00;92187.13;5012554;28;20022;-78
2023/04/21 03:12:08;;;;;;;0.70;0.70;;;;;;;4.24;100.00;92196.19;5012578;28;20052;-77
2023/04/21 03:14:36;;;;;;;1.17;0.70;;;;;;;4.26;100.00;92195.94;5012316;28;20034;-78
2023/04/21 03:17:01;;;;;;;0.50;0.50;;;;;;;4.23;100.00;92192.03;5012846;28;20044;-78
2023/04/21 03:19:30;;;;;;;0.60;0.60;;;;;;;4.24;100.00;92198.78;4996851;28;20042;-78
2023/04/21 03:21:55;;;;;;;0.73;0.70;;;;;;;4.22;100.00;92195.66;5013748;28;20040;-78
2023/04/21 03:24:21;;;;;;;0.88;0.70;;;;;;;4.22;100.00;92203.44;5012750;28;20046;-76
2023/04/21 03:26:47;;;;;;;0.70;0.63;;;;;;;4.20;100.00;92208.09;5010679;28;20458;-78
2023/04/21 03:29:13;;;;;;;0.80;0.80;;;;;;;4.24;100.00;92210.97;4996114;28;20046;-77
2023/04/21 03:31:38;;;;;;;1.88;0.60;;;;;;;4.21;100.00;92211.44;4992343;28;20381;-77
2023/04/21 03:34:04;;;;;;;0.70;0.70;;;;;;;4.17;100.00;92203.41;5003212;28;20092;-77
2023/04/21 03:36:30;;;;;;;0.60;0.60;;;;;;;4.16;100.00;92207.03;5012554;28;20038;-77
2023/04/21 03:38:57;;;;;;;0.55;0.55;;;;;;;4.13;100.00;92204.94;5012040;28;20046;-76
2023/04/21 03:41:23;;;;;;;0.73;0.73;;;;;;;4.12;100.00;92213.75;5013508;28;20041;-76
2023/04/21 03:43:51;;;;;;;0.95;0.70;;;;;;;4.08;100.00;92220.47;5004612;28;20450;-77
2023/04/21 03:46:19;;;;;;;0.85;0.70;;;;;;;4.09;100.00;92216.84;5011910;28;20380;-77
2023/04/21 03:48:45;;;;;;;1.23;0.80;;;;;;;4.05;100.00;92223.56;5013296;28;20148;-77
2023/04/21 03:51:11;;;;;;;0.82;0.70;;;;;;;4.04;100.00;92230.56;5014184;28;20506;-78
2023/04/21 03:53:36;;;;;;;0.75;0.75;;;;;;;4.00;100.00;92223.53;4996216;28;20038;-78
2023/04/21 03:56:02;;;;;;;1.02;0.93;;;;;;;3.98;100.00;92228.97;5013039;28;20399;-77
2023/04/21 03:58:28;;;;;;;0.77;0.77;;;;;;;3.95;100.00;92227.66;4993978;28;20061;-78
2023/04/21 04:00:53;;;;;;;0.60;0.60;;;;;;;3.89;100.00;92231.25;5012432;28;20084;-78
2023/04/21 04:03:20;;;;;;;0.60;0.60;;;;;;;3.79;100.00;92223.44;4993021;28;20142;-78
2023/04/21 04:05:45;;;;;;;0.73;0.70;;;;;;;3.82;100.00;92229.91;4993622;28;20460;-77
2023/04/21 04:08:11;;;;;;;0.60;0.60;;;;;;;3.79;100.00;92227.84;5011078;28;20034;-77
2023/04/21 04:10:37;;;;;;;0.60;0.60;;;;;;;3.80;100.00;92224.97;5013129;28;20476;-77
2023/04/21 04:13:02;;;;;;;0.60;0.60;;;;;;;3.74;100.00;92231.94;5012668;28;20046;-77
2023/04/21 04:15:28;;;;;;;0.70;0.70;;;;;;;3.73;100.00;92235.56;5012817;28;20042;-77
2023/04/21 04:17:54;;;;;;;1.75;0.50;;;;;;;3.69;100.00;92228.53;5009183;28;20041;-77
2023/04/21 04:20:19;;;;;;;0.50;0.50;;;;;;;3.69;100.00;92223.38;5009389;28;20038;-77
2023/04/21 04:22:45;;;;;;;1.00;0.70;;;;;;;3.69;100.00;92221.56;4995105;28;20042;-77
2023/04/21 04:25:13;;;;;;;0.60;0.60;;;;;;;3.72;100.00;92225.47;5012060;28;20038;-78
2023/04/21 04:27:40;;;;;;;0.60;0.60;;;;;;;3.72;100.00;92228.84;5014271;28;20511;-78
2023/04/21 04:30:06;;;;;;;0.47;0.47;;;;;;;3.72;100.00;92238.41;4995568;28;20046;-77
2023/04/21 04:32:34;;;;;;;0.73;0.73;;;;;;;3.73;100.00;92243.31;5014785;28;20546;-77
2023/04/21 04:34:59;;;;;;;0.60;0.57;;;;;;;3.73;100.00;92245.13;5009713;28;20048;-78
2023/04/21 04:37:25;;;;;;;0.60;0.60;;;;;;;3.70;100.00;92245.66;5025186;28;20045;-77
2023/04/21 04:39:54;;;;;;;0.60;0.60;;;;;;;3.70;100.00;92235.28;5007948;28;20039;-78
2023/04/21 04:42:19;;;;;;;0.50;0.50;;;;;;;3.68;100.00;92227.00;4994926;28;20085;-80
2023/04/21 04:44:46;;;;;;;0.75;0.70;;;;;;;3.70;100.00;92236.06;4998277;28;20104;-80
2023/04/21 04:47:12;;;;;;;0.60;0.60;;;;;;;3.74;100.00;92221.59;5012777;28;20033;-80
2023/04/21 04:49:37;;;;;;;0.50;0.50;;;;;;;3.78;100.00;92223.69;5015007;28;20076;-79
2023/04/21 04:52:03;;;;;;;1.75;0.50;;;;;;;3.77;100.00;92222.13;5008827;28;20038;-80
2023/04/21 04:54:29;;;;;;;0.60;0.60;;;;;;;3.77;100.00;92222.13;5009475;28;20041;-80
2023/04/21 04:56:56;;;;;;;0.63;0.63;;;;;;;3.77;100.00;92229.91;5031102;28;20033;-79
2023/04/21 04:59:22;;;;;;;0.50;0.50;;;;;;;3.80;100.00;92232.75;5014513;28;20399;-78
2023/04/21 05:01:47;;;;;;;0.50;0.50;;;;;;;3.82;100.00;92233.28;4978466;28;20040;-78
2023/04/21 05:04:15;;;;;;;0.40;0.40;;;;;;;3.90;100.00;92247.59;4994121;28;20042;-79
2023/04/21 05:06:41;;;;;;;0.60;0.60;;;;;;;4.02;100.00;92247.38;5023770;28;20048;-78
2023/04/21 05:09:09;;;;;;;0.50;0.50;;;;;;;4.13;100.00;92254.94;4996324;28;20057;-80
2023/04/21 05:11:37;;;;;;;0.80;0.80;;;;;;;4.04;100.00;92251.28;5002359;28;20041;-80
2023/04/21 05:14:03;;;;;;;0.68;0.68;;;;;;;3.89;100.00;92246.00;5018919;28;20029;-80
2023/04/21 05:16:28;;;;;;;0.68;0.68;;;;;;;3.89;100.00;92262.31;5019637;28;20044;-80
2023/04/21 05:18:54;;;;;;;0.70;0.70;;;;;;;3.85;100.00;92263.88;5014419;28;20042;-79
2023/04/21 05:21:26;;;;;;;0.60;0.60;;;;;;;3.87;100.00;92269.59;5011309;28;20776;-78
2023/04/21 05:23:52;;;;;;;;;;;;;;;3.88;100.00;92276.31;5013144;28;20389;-79
2023/04/21 05:26:18;;;;;;;0.60;0.60;;;;;;;3.84;100.00;92280.41;5012510;28;19917;-77
2023/04/21 05:28:43;;;;;;;0.60;0.60;;;;;;;3.83;100.00;92284.06;5013074;28;20399;-79
2023/04/21 05:31:09;;;;;;;0.70;0.68;;;;;;;3.85;100.00;92279.41;5014448;28;20407;-79
2023/04/21 05:33:35;;;;;;;0.65;0.65;;;;;;;3.88;100.00;92276.31;5014027;28;20041;-78
2023/04/21 05:36:00;;;;;;;0.70;0.70;;;;;;;3.91;100.00;92278.38;5014705;28;20034;-79
2023/04/21 05:38:26;;;;;;;0.50;0.50;;;;;;;3.94;100.00;92277.09;5013563;28;20410;-80
2023/04/21 05:40:55;;;;;;;4.50;0.80;;;;;;;3.96;100.00;92281.03;5012131;28;20034;-78
2023/04/21 05:43:21;;;;;;;0.60;0.60;;;;;;;3.98;100.00;92278.16;5011194;28;20125;-78
2023/04/21 05:45:48;;;;;;;0.57;0.57;;;;;;;4.00;100.00;92281.28;4994336;28;20049;-78
2023/04/21 05:48:14;;;;;;;0.60;0.60;;;;;;;3.95;100.00;92271.69;5018346;28;20037;-78
2023/04/21 05:50:39;;;;;;;0.75;0.75;;;;;;;4.03;100.00;92275.63;4997144;28;20052;-79
2023/04/21 05:53:05;;;;;;;0.63;0.63;;;;;;;4.07;100.00;92278.47;5006934;28;20045;-81
2023/04/21 05:55:33;;;;;;;0.70;0.70;;;;;;;4.12;100.00;92274.13;5002164;28;20056;-79
2023/04/21 05:57:58;;;;;;;0.75;0.75;;;;;;;4.15;100.00;92276.19;5005337;28;20061;-79
2023/04/21 06:00:24;;;;;;;0.80;0.80;;;;;;;4.17;100.00;92275.97;5000571;28;20037;-78
2023/04/21 06:02:50;;;;;;;0.77;0.77;;;;;;;4.15;100.00;92283.97;5005068;28;20065;-80
2023/04/21 06:05:16;;;;;;;1.00;0.88;;;;;;;4.20;100.00;92280.63;5006895;28;20046;-80
2023/04/21 06:07:41;;;;;;;1.10;1.00;;;;;;;4.21;100.00;92273.63;5006464;28;20034;-81
2023/04/21 06:10:07;;;;;;;1.27;1.10;;;;;;;4.25;100.00;92283.25;5000891;28;20052;-79
2023/04/21 06:12:33;;;;;;;1.60;1.20;;;;;;;4.32;100.00;92285.59;5019116;28;20064;-80
2023/04/21 06:14:59;;;;;;;87.80;2.78;;;;;;;4.35;100.00;92283.31;5001194;28;20037;-80
2023/04/21 06:17:24;;;;;;;70.20;2.13;;;;;;;4.24;100.00;92292.06;5019964;28;20109;-82
2023/04/21 06:19:52;;;;;;;24.65;1.50;;;;;;;4.15;100.00;92286.56;5001177;28;20034;-79
2023/04/21 06:22:21;;;;;;;3.08;1.27;;;;;;;4.17;100.00;92286.31;5003706;28;20048;-80
2023/04/21 06:24:47;;;;;;;1.95;1.30;;;;;;;4.16;100.00;92287.34;5004903;28;20518;-78
2023/04/21 06:27:13;;;;;;;2.28;1.25;;;;;;;4.20;100.00;92283.22;5004619;28;20045;-80
2023/04/21 06:29:41;;;;;;;2.03;1.20;;;;;;;4.31;100.00;92295.19;5007113;28;20054;-80
2023/04/21 06:32:07;;;;;;;1.67;1.27;;;;;;;4.33;100.00;92300.91;5003344;28;20058;-80
2023/04/21 06:34:33;;;;;;;49.30;2.60;;;;;;;4.45;100.00;92292.16;5015807;28;20061;-79
2023/04/21 06:36:58;;;;;;;71.32;3.22;;;;;;;4.40;100.00;92294.72;5001189;28;20132;-79
2023/04/21 06:39:25;;;;;;;87.38;3.15;;;;;;;4.47;100.00;92290.88;5004206;28;21312;-78
2023/04/21 06:41:51;;;;;;;70.47;2.88;;;;;;;4.22;100.00;92301.88;5003600;28;21465;-80
2023/04/21 06:44:17;;;;;;;2.75;1.70;;;;;;;4.20;100.00;92296.19;4999001;28;20538;-79
2023/04/21 06:46:43;;;;;;;3.53;1.83;;;;;;;4.25;100.00;92301.38;5026971;28;20203;-79
2023/04/21 06:49:09;;;;;;;4.10;2.00;;;;;;;4.32;100.00;92301.97;5016207;28;20109;-79
2023/04/21 06:51:36;;;;;;;2.78;1.80;;;;;;;4.43;100.00;92299.41;5016563;28;20495;-79
2023/04/21 06:54:02;;;;;;;3.55;1.95;;;;;;;4.53;100.00;92291.69;5016652;28;20492;-79
2023/04/21 06:56:28;;;;;;;2.05;1.45;;;;;;;4.67;100.00;92299.75;5014886;28;20511;-78
2023/04/21 06:58:55;;;;;;;2.97;1.35;;;;;;;4.79;100.00;92293.31;5015946;28;20605;-79
2023/04/21 07:01:23;;;;;;;1.60;1.30;;;;;;;4.84;100.00;92289.16;5015848;28;20427;-78
2023/04/21 07:03:49;;;;;;;1.63;1.08;;;;;;;4.94;100.00;92297.00;5015787;28;20049;-78
2023/04/21 07:06:15;;;;;;;0.88;0.88;;;;;;;5.01;100.00;92289.75;5013565;28;20092;-78
2023/04/21 07:08:40;;;;;;;1.45;0.98;;;;;;;5.10;100.00;92298.56;5011192;28;20037;-78
2023/04/21 07:11:06;;;;;;;10.98;1.52;;;;;;;5.08;100.00;92292.88;4996075;28;20039;-78
2023/04/21 07:13:31;;;;;;;1.98;1.40;;;;;;;5.03;100.00;92290.28;5011813;28;20041;-79
2023/04/21 07:15:57;;;;;;;1.45;1.20;;;;;;;4.98;100.00;92291.03;4978555;28;20041;-78
2023/04/21 07:18:23;;;;;;;1.80;1.23;;;;;;;5.02;100.00;92291.28;4996173;28;20035;-78
2023/04/21 07:20:48;;;;;;;1.52;1.13;;;;;;;5.08;100.00;92292.88;4996099;28;20038;-79
2023/04/21 07:23:14;;;;;;;330.42;9.10;;;;;;;4.91;100.00;92297.47;4997622;28;20037;-79
2023/04/21 07:25:39;;;;;;;310.42;7.07;;;;;;;4.91;100.00;92297.47;5014799;28;20041;-78
2023/04/21 07:28:05;;;;;;;1.73;1.30;;;;;;;4.91;100.00;92298.28;4997565;28;20049;-79
2023/04/21 07:30:31;;;;;;;2.15;1.45;;;;;;;4.97;100.00;92299.06;5030750;28;20599;-78
2023/04/21 07:32:57;;;;;;;4.25;1.70;;;;;;;5.01;100.00;92300.13;5014149;28;20129;-78
2023/04/21 07:35:23;;;;;;;3.28;1.90;;;;;;;5.07;100.00;92300.94;5015570;28;20053;-79
2023/04/21 07:37:49;;;;;;;2.80;1.70;;;;;;;5.12;100.00;92295.75;5015277;28;20595;-78
2023/04/21 07:40:14;;;;;;;3.25;1.38;;;;;;;5.22;100.00;92306.94;5014598;28;20041;-80
2023/04/21 07:42:40;;;;;;;166.05;5.15;;;;;;;5.25;100.00;92307.44;5016810;28;20052;-79
2023/04/21 07:45:06;;;;;;;463.85;10.20;;;;;;;4.84;100.00;92321.09;5016268;28;20038;-80
2023/04/21 07:47:32;;;;;;;604.50;13.65;;;;;;;4.71;100.00;92316.38;5014974;28;20231;-80
2023/04/21 07:49:58;;;;;;;227.45;5.97;;;;;;;4.60;100.00;92312.97;4998709;28;20033;-80
2023/04/21 07:52:23;;;;;;;242.40;5.68;;;;;;;4.65;100.00;92312.97;5015272;28;20045;-78
2023/04/21 07:54:50;;;;;;;124.43;4.38;;;;;;;4.78;100.00;92319.50;4999092;28;20041;-80
2023/04/21 07:57:16;;;;;;;10.55;2.30;;;;;;;4.87;100.00;92317.22;5015382;28;20138;-80
2023/04/21 07:59:41;;;;;;;10.80;2.45;;;;;;;4.95;100.00;92324.47;5015153;28;20077;-79
2023/04/21 08:02:07;;;;;;;4.88;3.10;;;;;;;5.04;100.00;92317.75;5015950;28;20044;-79
2023/04/21 08:04:33;;;;;;;4.60;2.67;;;;;;;5.11;100.00;92320.91;5015976;28;20116;-79
2023/04/21 08:06:59;;;;;;;3.22;1.88;;;;;;;5.18;100.00;92316.25;5014894;28;20046;-79
2023/04/21 08:09:25;;;;;;;2.25;1.48;;;;;;;5.29;100.00;92332.63;5016401;28;20030;-79
2023/04/21 08:11:51;;;;;;;14.00;1.10;;;;;;;5.42;100.00;92332.09;5016402;28;20112;-79
2023/04/21 08:14:17;;;;;;;442.25;12.90;;;;;;;5.21;100.00;92330.53;5015660;28;20057;-79
2023/04/21 08:16:42;;;;;;;335.08;8.45;;;;;;;5.01;100.00;92336.44;5031232;28;20037;-79
2023/04/21 08:19:08;;;;;;;244.73;6.78;;;;;;;4.98;100.00;92334.38;4998053;28;20056;-79
2023/04/21 08:21:35;;;;;;;21.15;2.20;;;;;;;5.03;100.00;92328.41;5030747;28;20069;-79
2023/04/21 08:24:00;;;;;;;5.20;2.03;;;;;;;5.06;100.00;92323.47;5014761;28;20042;-79
2023/04/21 08:26:28;;;;;;;10.10;2.05;;;;;;;5.20;100.00;92329.75;5016075;28;20145;-79
2023/04/21 08:28:55;;;;;;;100.18;4.20;;;;;;;5.22;100.00;92326.88;5016160;28;20362;-79
2023/04/21 08:31:22;;;;;;;107.10;3.60;;;;;;;5.12;100.00;92332.84;5014761;28;20147;-79
2023/04/21 08:33:47;;;;;;;352.40;9.15;;;;;;;4.92;100.00;92337.97;5015830;28;20033;-79
2023/04/21 08:36:13;;;;;;;288.92;6.95;;;;;;;4.80;100.00;92344.16;5012591;28;20476;-80
2023/04/21 08:38:41;;;;;;;33.35;1.67;;;;;;;5.06;100.00;92349.41;5011374;28;20045;-79
2023/04/21 08:41:08;;;;;;;88.70;3.10;;;;;;;5.02;100.00;92353.56;5014521;28;20041;-79
2023/04/21 08:43:33;;;;;;;107.63;3.65;;;;;;;4.80;100.00;92357.13;5015033;28;20034;-79
2023/04/21 08:46:05;;;;;;;26.38;2.58;;;;;;;4.82;100.00;92337.91;5015931;28;20113;-79
2023/04/21 08:48:35;;;;;;;31.38;1.95;;;;;;;4.94;100.00;92336.69;5011085;28;20042;-79
2023/04/21 08:51:01;;;;;;;2.97;1.63;;;;;;;5.05;100.00;92340.09;4996324;28;20022;-80
2023/04/21 08:53:26;;;;;;;2.92;1.88;;;;;;;5.12;100.00;92351.00;5011124;28;20444;-80
2023/04/21 08:55:54;;;;;;;3.20;1.95;;;;;;;5.20;100.00;92349.72;5011667;28;20121;-79
2023/04/21 08:58:23;;;;;;;3.20;1.80;;;;;;;5.25;100.00;92364.53;4986798;28;20037;-79
2023/04/21 09:00:49;;;;;;;1.90;1.20;;;;;;;5.32;100.00;92360.66;5021055;28;20346;-79
2023/04/21 09:03:23;;;;;;;2.15;1.40;;;;;;;5.30;100.00;92362.72;5015987;28;20075;-80
2023/04/21 09:06:11;;;;;;;3.35;2.17;;;;;;;5.30;100.00;92364.56;5014176;28;20064;-79
2023/04/21 09:08:42;;;;;;;90.57;4.55;;;;;;;5.21;100.00;92367.63;5015678;28;20041;-80
2023/04/21 09:11:12;;;;;;;128.10;3.93;;;;;;;5.26;100.00;92360.91;5013853;28;20403;-80
2023/04/21 09:13:38;;;;;;;46.47;2.47;;;;;;;5.25;100.00;92367.91;5030025;28;20065;-80
2023/04/21 09:16:14;;;;;;;3.30;0.68;;;;;;;5.31;100.00;92366.88;5014416;28;20061;-79
2023/04/21 09:18:41;;;;;;;444.08;10.60;;;;;;;5.10;100.00;92363.44;5013251;28;20034;-79
2023/04/21 09:21:11;;;;;;;425.13;10.52;;;;;;;5.00;100.00;92368.63;5029889;28;20049;-80
2023/04/21 09:23:43;;;;;;;50.10;2.40;;;;;;;5.02;100.00;92379.50;5012662;28;20038;-79
2023/04/21 09:26:10;;;;;;;371.83;7.97;;;;;;;4.88;100.00;92360.25;5029630;28;20483;-78
2023/04/21 09:28:36;;;;;;;30.25;5.55;;;;;;;4.90;100.00;92377.13;5013181;28;20148;-80
2023/04/21 09:31:01;;;;;;;4.38;2.75;;;;;;;4.98;100.00;92368.09;5014069;28;20036;-80
2023/04/21 09:33:27;;;;;;;12.13;2.45;;;;;;;5.07;100.00;92361.38;4997199;28;20482;-79
2023/04/21 09:35:52;;;;;;;5.45;2.15;;;;;;;5.24;100.00;92361.16;5029863;28;20373;-79
2023/04/21 09:38:21;;;;;;;3.10;1.88;;;;;;;5.38;100.00;92370.03;5014248;28;20041;-79
2023/04/21 09:40:58;;;;;;;2.30;1.70;;;;;;;5.51;100.00;92378.34;5013708;28;20037;-79
2023/04/21 09:43:24;;;;;;;66.28;3.25;;;;;;;5.56;100.00;92386.94;5015023;28;20080;-79
2023/04/21 09:45:50;;;;;;;157.23;4.80;;;;;;;5.51;100.00;92392.09;5015127;28;20062;-79
2023/04/21 09:48:16;;;;;;;43.90;2.67;;;;;;;5.27;100.00;92396.19;5014221;28;20109;-79
2023/04/21 09:50:44;;;;;;;1.42;1.20;;;;;;;5.17;100.00;92389.94;4997201;28;20053;-79
2023/04/21 09:53:15;;;;;;;0.93;0.90;;;;;;;5.09;100.00;92385.25;5014578;28;20065;-79
2023/04/21 09:55:41;;;;;;;1.00;0.82;;;;;;;5.07;100.00;92396.94;5004783;28;20125;-80
2023/04/21 09:58:12;;;;;;;0.88;0.82;;;;;;;5.11;100.00;92403.94;5010502;28;20118;-80
2023/04/21 10:00:38;;;;;;;1.00;0.90;;;;;;;5.17;100.00;92395.13;5011434;28;20045;-79
2023/04/21 10:03:09;;;;;;;1.10;1.00;;;;;;;5.31;100.00;92400.63;5013076;28;20407;-80
2023/04/21 10:05:36;;;;;;;1.25;1.00;;;;;;;5.44;100.00;92394.16;5012847;28;20079;-79
2023/04/21 10:08:05;;;;;;;1.08;0.93;;;;;;;5.51;100.00;92386.91;5011624;28;20033;-78
2023/04/21 10:10:33;;;;;;;1.48;1.20;;;;;;;5.55;100.00;92387.97;5012007;28;20037;-77
2023/04/21 10:13:00;;;;;;;1.63;1.00;;;;;;;5.58;100.00;92387.47;5014945;28;20030;-79
2023/04/21 10:15:38;;;;;;;0.93;0.82;;;;;;;5.64;100.00;92399.41;5014153;28;20100;-79
2023/04/21 10:18:30;;;;;;;13.65;1.27;;;;;;;5.78;100.00;92396.31;5014126;28;20029;-79
2023/04/21 10:21:07;;;;;;;341.33;7.67;;;;;;;5.66;100.00;92393.19;5011082;28;20490;-79
2023/04/21 10:23:44;;;;;;;46.88;4.78;;;;;;;5.63;100.00;92404.88;5011031;28;20350;-79
2023/04/21 10:26:15;;;;;;;230.68;6.85;;;;;;;5.60;100.00;92400.94;5008777;28;20061;-82
2023/04/21 10:29:05;;;;;;;11.40;3.17;;;;;;;5.84;100.00;92397.88;5011719;28;20046;-79
2023/04/21 10:31:32;;;;;;;2.17;1.60;;;;;;;5.64;100.00;92396.03;5012053;28;20522;-79
2023/04/21 10:36:55;;;;;;;2.08;1.15;;;;;;;5.76;100.00;92387.97;5008131;28;20034;-79
2023/04/21 10:39:36;;;;;;;1.63;1.30;;;;;;;5.80;100.00;92383.84;5002102;28;20061;-79
2023/04/21 10:42:11;;;;;;;1.85;1.30;;;;;;;6.05;100.00;92401.28;5013769;28;20447;-78
2023/04/21 10:44:41;;;;;;;1.75;1.00;;;;;;;6.09;100.00;92407.53;5015584;28;20121;-79
2023/04/21 10:47:07;;;;;;;27.42;2.25;;;;;;;6.31;100.00;92404.66;5024190;28;20021;-78
2023/04/21 10:49:37;;;;;;;117.65;4.40;;;;;;;6.28;100.00;92405.16;5004979;28;20069;-80
2023/04/21 10:52:08;;;;;;;186.15;6.18;;;;;;;6.05;100.00;92398.69;4998478;28;20037;-78
2023/04/21 10:54:48;;;;;;;62.45;7.72;;;;;;;5.92;100.00;92397.38;5007137;28;20402;-79
2023/04/21 10:57:19;;;;;;;83.97;3.22;;;;;;;5.82;100.00;92400.72;5010376;28;20395;-79
2023/04/21 10:59:46;;;;;;;39.63;2.42;;;;;;;5.80;100.00;92402.03;5014441;28;20197;-78
2023/04/21 11:02:13;;;;;;;392.98;10.52;;;;;;;5.55;100.00;92402.75;5012467;28;20037;-79
2023/04/21 11:04:43;;;;;;;432.63;10.63;;;;;;;5.41;100.00;92402.47;5015354;28;20502;-80
2023/04/21 11:07:20;;;;;;;133.82;5.18;;;;;;;5.43;100.00;92396.00;5017814;28;20042;-79
2023/04/21 11:09:47;;;;;;;112.05;3.45;;;;;;;5.68;100.00;92398.91;5017198;28;20044;-80
2023/04/21 11:12:17;;;;;;;283.05;8.20;;;;;;;5.58;100.00;92405.63;5016789;28;20121;-79
2023/04/21 11:14:46;;;;;;;41.72;2.92;;;;;;;5.52;100.00;92404.06;5016960;28;20038;-79
2023/04/21 11:17:22;;;;;;;369.50;10.02;;;;;;;5.48;100.00;92397.81;5016717;28;20026;-79
2023/04/21 11:19:51;;;;;;;449.05;12.60;;;;;;;5.51;100.00;92402.47;5015070;28;20038;-80
2023/04/21 11:22:17;;;;;;;128.50;4.63;;;;;;;5.63;100.00;92400.44;5006123;28;20084;-79
2023/04/21 11:24:44;;;;;;;74.75;4.28;;;;;;;5.57;100.00;92404.06;5008239;28;20030;-80
2023/04/21 11:27:11;;;;;;;3.90;2.50;;;;;;;5.63;100.00;92400.44;4998652;28;20041;-79
2023/04/21 11:29:37;;;;;;;3.88;2.42;;;;;;;5.77;100.00;92405.91;5029815;28;20045;-79
2023/04/21 11:32:05;;;;;;;10.93;3.03;;;;;;;5.92;100.00;92406.97;5014136;28;20037;-79